TOURFACTS.DK  
Stats and Facts from Tour de France.

Tour de France 2019 starts in 320 days
  Riders   Stages   Teams   Summits   Yearly  


 
Search by year

After 2018 - Stage 21:
 15000 starters.
  5165 different riders.
  638 teams.
  2253 stages.
  456 restdays.
  442940.60 km.
  5684 abandonnees.


Top 3
GC
Geraint Thomas83:17:13
Tom Dumoulin83:19:04
Christopher Froome83:19:37
Climb
Julian Alaphilippe170 pt.
Warren Barguil91 pt.
Rafal Majka76 pt.
Sprint
Peter Sagan477 pt.
Alexander Kristoff246 pt.
Arnaud Démare203 pt.
Youth
Pierre-Roger Latou..83:39:26
Egan Bernal83:45:05
Guillaume Martin84:01:31
Facts from Tour de France 2016
  |   Stages.  |   Stage winners.  |   Days in yellow  |   Average speed.  |   Route.  |   Teams.  |   All riders.  |   Rookies.  |  

  |   Withdrawls.  |   GC.  |   Polka  |   Green  |   White  |   Summits. (In tour)  |   Miscellaneous.  |  

Stage 21 on 24 - 07 - 2016
         Owning:    Christopher Froome      Rafal Majka      Peter Sagan      Adam Yates  

Pick a stage:  1 2 3 4 5 6 7 8 9 10 11 12 13 14 15 16 17 18 19 20 21
  ChantillyChamps-Élysées | Dist: 113.00 km.
Cat: 4Côte de l'ErmitageCZERoman Kreuziger1 points 

Average speed for all riders in stage:  41,310 km./hr.
    Place:Name:Team:Time:Km/h:
1
GERAndré GreipelBELLotto Soudal02:43:08  +  00:00:00=41,561 
2
SVKPeter SaganRUSTinkoff02:43:08  +  00:00:00=41,561 
3
NORAlexander KristoffRUSTeam Katusha02:43:08  +  00:00:00=41,561 
44 NOREdvald Boasson HagenZAFDimension Data02:43:08  +  00:00:00=41,561 
55 AUSMichael MatthewsAUSORICA BikeExchange02:43:08  +  00:00:00=41,561 
66 BELJasper StuyvenUSATrek - Segafredo02:43:08  +  00:00:00=41,561 
77 URSRamunas NavardauskasUSATeam Cannondale Drapac02:43:08  +  00:00:00=41,561 
88 FRAChristophe LaporteFRACofidis – Solutions Crédits02:43:08  +  00:00:00=41,561 
99 BELSam BennettDEUBora-Argon 1802:43:08  +  00:00:00=41,561 
1010 RSAReinardt Janse Van RensburgZAFDimension Data02:43:08  +  00:00:00=41,561 
1111 ITADavide CimolaiITALampre-Merida02:43:08  +  00:00:00=41,561 
1212 ENGDaniel McLayFRAFortuneo - Vital Concept02:43:08  +  00:00:00=41,561 
1313 AUSLeigh HowardCHEIAM Cycling02:43:08  +  00:00:00=41,561 
1414 BRAMaximilano RichezeBELEtixx - Quick Step02:43:08  +  00:00:00=41,561 
1515 FRAAnthony RouxFRAFDJ02:43:08  +  00:00:00=41,561 
1616 GERJohn DegenkolbDEUTeam Giant Alpecin02:43:08  +  00:00:00=41,561 
1717 NEDRamon SinkeldamDEUTeam Giant Alpecin02:43:08  +  00:00:00=41,561 
1818 BELSep VanmarckeNLDTeam Lotto NL - Jumbo02:43:08  +  00:00:00=41,561 
1919 DENMichael ValgrenRUSTinkoff02:43:08  +  00:00:00=41,561 
2020 ESPAlejandro ValverdeESPMovistar Team02:43:08  +  00:00:00=41,561 
2121 UKRAndriy GrivkoKAZAstana Pro Team02:43:08  +  00:00:00=41,561 
2222 CZERoman KreuzigerRUSTinkoff02:43:08  +  00:00:00=41,561 
2323 FRAGeoffrey SoupeFRACofidis – Solutions Crédits02:43:08  +  00:00:00=41,561 
2424 ITAOscar GattoRUSTinkoff02:43:08  +  00:00:00=41,561 
2525 ENGDaniel MartinBELEtixx - Quick Step02:43:08  +  00:00:00=41,561 
2626 ITAJacopo GuarnieriRUSTeam Katusha02:43:08  +  00:00:00=41,561 
2727 FRAArthur VichotFRAFDJ02:43:08  +  00:00:00=41,561 
2828 COLNairo QuintanaESPMovistar Team02:43:08  +  00:00:00=41,561 
2929 BELJürgen RoelandtsBELLotto Soudal02:43:08  +  00:00:00=41,561 
3030 NEDStef ClementCHEIAM Cycling02:43:08  +  00:00:00=41,561 
3131 FRARomain BardetFRAAg2r La Mondiale02:43:08  +  00:00:00=41,561 
3232 ITADiego RosaKAZAstana Pro Team02:43:08  +  00:00:00=41,561 
3333 AUSRichie PorteUSABMC Racing Team02:43:08  +  00:00:00=41,561 
3434 ENGAdam YatesAUSORICA BikeExchange02:43:08  +  00:00:00=41,561 
3535 RSALouis MeintjesITALampre-Merida02:43:08  +  00:00:00=41,561 
3636 ESPMarkel IrizarUSATrek - Segafredo02:43:18  +  00:00:10=41,519 
3737 NEDDylan Van BaarleUSATeam Cannondale Drapac02:43:18  +  00:00:10=41,519 
3838 FRAAdrien PetitFRADirect Energie02:43:25  +  00:00:17=41,489 
3939 POLMaciej BodnarRUSTinkoff02:43:25  +  00:00:17=41,489 
4040 ITAFabio SabatiniBELEtixx - Quick Step02:43:29  +  00:00:21=41,472 
4141 GERMarcel SiebergBELLotto Soudal02:43:31  +  00:00:23=41,464 
4242 FRATony GallopinBELLotto Soudal02:43:31  +  00:00:23=41,464 
4343 NEDRoy CurversDEUTeam Giant Alpecin02:43:33  +  00:00:25=41,455 
4444 FRACyril GautierFRAAg2r La Mondiale02:43:33  +  00:00:25=41,455 
4545 SUIMichael AlbasiniAUSORICA BikeExchange02:43:33  +  00:00:25=41,455 
4646 ESPÁngel ViciosoRUSTeam Katusha02:43:39  +  00:00:31=41,430 
4747 ESPHaimar ZubeldiaUSATrek - Segafredo02:43:39  +  00:00:31=41,430 
4848 ESPAlberto LosadaRUSTeam Katusha02:43:39  +  00:00:31=41,430 
4949 SUISébastien ReichenbachFRAFDJ02:43:39  +  00:00:31=41,430 
5050 FRAPierre RollandUSATeam Cannondale Drapac02:43:39  +  00:00:31=41,430 
5151 LUXFränk SchleckUSATrek - Segafredo02:43:39  +  00:00:31=41,430 
5252 ESPJoaquim RodriguezRUSTeam Katusha02:43:39  +  00:00:31=41,430 
5353 JPNYukiya ArashiroITALampre-Merida02:43:39  +  00:00:31=41,430 
5454 ITADomenico PozzovivoFRAAg2r La Mondiale02:43:39  +  00:00:31=41,430 
5555 GEREmanuel BuchmannDEUBora-Argon 1802:43:39  +  00:00:31=41,430 
5656 SUIMichael SchärUSABMC Racing Team02:43:39  +  00:00:31=41,430 
5757 USABrent BookwalterUSABMC Racing Team02:43:39  +  00:00:31=41,430 
5858 GERPaul MartensNLDTeam Lotto NL - Jumbo02:43:39  +  00:00:31=41,430 
5959 ITAFabio AruKAZAstana Pro Team02:43:39  +  00:00:31=41,430 
6060 AUTBernhard EiselZAFDimension Data02:43:44  +  00:00:36=41,409 
6161 GERMarcel KittelBELEtixx - Quick Step02:43:46  +  00:00:38=41,400 
6262 ITAMatteo TosattoRUSTinkoff02:43:46  +  00:00:38=41,400 
6363 FRAPierre-Luc PérichonFRAFortuneo - Vital Concept02:43:48  +  00:00:40=41,392 
6464 AUSAdam HansenBELLotto Soudal02:43:49  +  00:00:41=41,388 
6565 NZLGregory HendersonBELLotto Soudal02:43:49  +  00:00:41=41,388 
6666 BELJulien VermoteBELEtixx - Quick Step02:43:51  +  00:00:43=41,379 
6767 BELIljo KeisseBELEtixx - Quick Step02:43:51  +  00:00:43=41,379 
6868 FRAJulian AlaphilippeBELEtixx - Quick Step02:43:53  +  00:00:45=41,371 
6969 DENChris Anker SørensenFRAFortuneo - Vital Concept02:43:53  +  00:00:45=41,371 
7070 BELJan BakelantsFRAAg2r La Mondiale02:43:53  +  00:00:45=41,371 
7171 FRAAlexis VuillermozFRAAg2r La Mondiale02:43:53  +  00:00:45=41,371 
7272 ESPImanol ErvitiESPMovistar Team02:43:53  +  00:00:45=41,371 
7373 LUXBen GastauerFRAAg2r La Mondiale02:43:53  +  00:00:45=41,371 
7474 FRASamuel DumoulinFRAAg2r La Mondiale02:43:53  +  00:00:45=41,371 
7575 FRAMickaël CherelFRAAg2r La Mondiale02:43:53  +  00:00:45=41,371 
7676 FRAFlorian VachonFRAFortuneo - Vital Concept02:43:53  +  00:00:45=41,371 
7777 COLWinner AnaconaESPMovistar Team02:43:53  +  00:00:45=41,371 
7878 USAPeter StetinaUSATrek - Segafredo02:43:53  +  00:00:45=41,371 
7979 SLOJan PolancITALampre-Merida02:43:53  +  00:00:45=41,371 
8080 HRVKristijan DurasekITALampre-Merida02:43:53  +  00:00:45=41,371 
8181 FRAArmindo FonsecaFRAFortuneo - Vital Concept02:43:53  +  00:00:45=41,371 
8282 FRAAnthony DelaplaceFRAFortuneo - Vital Concept02:43:53  +  00:00:45=41,371 
8383 BELSerge PauwelsZAFDimension Data02:43:53  +  00:00:45=41,371 
8484 ESPJon Izaguirre InsaustiESPMovistar Team02:43:53  +  00:00:45=41,371 
8585 URSTanel KangertKAZAstana Pro Team02:43:53  +  00:00:45=41,371 
8686 FRAWarren BarguilDEUTeam Giant Alpecin02:43:53  +  00:00:45=41,371 
8787 USATejay Van GarderenUSABMC Racing Team02:43:53  +  00:00:45=41,371 
8888 AUTPatrick KonradDEUBora-Argon 1802:43:53  +  00:00:45=41,371 
8989 AUTGeorg PreidlerDEUTeam Giant Alpecin02:43:53  +  00:00:45=41,371 
9090 ERIDaniel TeklehaimanotZAFDimension Data02:43:53  +  00:00:45=41,371 
9191 FRAAmaël MoinardUSABMC Racing Team02:43:53  +  00:00:45=41,371 
9292 ITACesare BenedettiDEUBora-Argon 1802:43:53  +  00:00:45=41,371 
9393 CZEJan BártaDEUBora-Argon 1802:43:53  +  00:00:45=41,371 
9494 POLRafal MajkaRUSTinkoff02:43:53  +  00:00:45=41,371 
9595 SLOKristjan KorenUSATeam Cannondale Drapac02:43:53  +  00:00:45=41,371 
9696 ITADamiano CarusoUSABMC Racing Team02:43:53  +  00:00:45=41,371 
9797 SLOLuka PibernikITALampre-Merida02:43:53  +  00:00:45=41,371 
9898 COLJarlinson Pantano GomezCHEIAM Cycling02:44:00  +  00:00:52=41,341 
9999 CANAntoine DuchesneFRADirect Energie02:44:02  +  00:00:54=41,333 
100100 PORNelson OliveiraESPMovistar Team02:44:02  +  00:00:54=41,333 
101101 POLBartosz HuzarskiDEUBora-Argon 1802:44:05  +  00:00:57=41,320 
102102 SUISteve MorabitoFRAFDJ02:43:53  +  00:00:45=41,371 
103103 FRAWilliam BonnetFRAFDJ02:43:53  +  00:00:45=41,371 
104104 FRAJérémy RoyFRAFDJ02:43:53  +  00:00:45=41,371 
105105 ESPDaniel MorenoESPMovistar Team02:43:53  +  00:00:45=41,371 
106106 FRAJérôme CoppelCHEIAM Cycling02:43:53  +  00:00:45=41,371 
107107 ESPLuis Angel MateFRACofidis – Solutions Crédits02:43:53  +  00:00:45=41,371 
108108 ARGEduardo SepulvedaFRAFortuneo - Vital Concept02:43:53  +  00:00:45=41,371 
109109 GERAndreas SchillingerDEUBora-Argon 1802:43:53  +  00:00:45=41,371 
110110 ESPRubén PlazaAUSORICA BikeExchange02:43:53  +  00:00:45=41,371 
111111 RSADaryl ImpeyAUSORICA BikeExchange02:43:53  +  00:00:45=41,371 
112112 ENGStephen CummingsZAFDimension Data02:43:53  +  00:00:45=41,371 
113113 BELGreg Van AvermaetUSABMC Racing Team02:43:53  +  00:00:45=41,371 
114114 IRLChristopher Juul JensenAUSORICA BikeExchange02:43:53  +  00:00:45=41,371 
115115 AUSLuke DurbridgeAUSORICA BikeExchange02:43:53  +  00:00:45=41,371 
116116 NEDTom-Jelte SlagterUSATeam Cannondale Drapac02:43:53  +  00:00:45=41,371 
117117 ITAPaolo TiralongoKAZAstana Pro Team02:43:53  +  00:00:45=41,371 
118118 ITAVincenzo NibaliKAZAstana Pro Team02:43:53  +  00:00:45=41,371 
119119 ESPLuis León SánchezKAZAstana Pro Team02:43:53  +  00:00:45=41,371 
120120 SUIMartin ElmigerCHEIAM Cycling02:43:53  +  00:00:45=41,371 
121121 NEDWilco KeldermanNLDTeam Lotto NL - Jumbo02:43:53  +  00:00:45=41,371 
122122 USAAlex HowesUSATeam Cannondale Drapac02:43:53  +  00:00:45=41,371 
123123 FRABrice FeilluFRAFortuneo - Vital Concept02:43:53  +  00:00:45=41,371 
124124 ITAMatteo BonoITALampre-Merida02:43:53  +  00:00:45=41,371 
125125 BELMaarten WynantsNLDTeam Lotto NL - Jumbo02:43:53  +  00:00:45=41,371 
126126 HRVRobert KiserlovskiRUSTinkoff02:43:53  +  00:00:45=41,371 
127127 RUSIlnur ZakarinRUSTeam Katusha02:43:53  +  00:00:45=41,371 
128128 SUIJakob FuglsangKAZAstana Pro Team02:43:53  +  00:00:45=41,371 
129129 NEDAlbert TimmerDEUTeam Giant Alpecin02:43:53  +  00:00:45=41,371 
130130 FRA Alexis GougeardFRAAg2r La Mondiale02:43:53  +  00:00:45=41,371 
131131 FRASylvain ChavanelFRADirect Energie02:43:53  +  00:00:45=41,371 
132132 WALGeraint ThomasGBRSky Procycling02:44:21  +  00:01:13=41,253 
133133 NEDWout PoelsGBRSky Procycling02:44:21  +  00:01:13=41,253 
134134 COLSergio Luis HenaoGBRSky Procycling02:44:21  +  00:01:13=41,253 
135135 ESPMikel Landa MeanaGBRSky Procycling02:44:21  +  00:01:13=41,253 
136136 ESPMikel NieveGBRSky Procycling02:44:21  +  00:01:13=41,253 
137137 WALLuke RoweGBRSky Procycling02:44:21  +  00:01:13=41,253 
138138 KENChristopher FroomeGBRSky Procycling02:44:21  +  00:01:13=41,253 
139139 BLRVasil KiryienkaGBRSky Procycling02:44:21  +  00:01:13=41,253 
140140 ENGIan StannardGBRSky Procycling02:44:21  +  00:01:13=41,253 
141141 AUTMarco HallerRUSTeam Katusha02:44:21  +  00:01:13=41,253 
142142 FRANicolas EdetFRACofidis – Solutions Crédits02:44:32  +  00:01:24=41,207 
143143 FRAArnold JeannessonFRACofidis – Solutions Crédits02:44:32  +  00:01:24=41,207 
144144 PORRui CostaITALampre-Merida02:44:40  +  00:01:32=41,174 
145145 NEDBauke MollemaUSATrek - Segafredo02:44:41  +  00:01:33=41,170 
146146 SUIGregory RastUSATrek - Segafredo02:44:41  +  00:01:33=41,170 
147147 GERPaul VossDEUBora-Argon 1802:44:42  +  00:01:34=41,166 
148148 FRACyril LemoineFRACofidis – Solutions Crédits02:44:55  +  00:01:47=41,112 
149149 CZEPetr VakocBELEtixx - Quick Step02:45:08  +  00:02:00=41,058 
150150 ETHTsgabu Gebremaryan GrmayITALampre-Merida02:45:08  +  00:02:00=41,058 
151151 KAZAlexey LutsenkoKAZAstana Pro Team02:45:11  +  00:02:03=41,045 
152152 FRAJérôme CousinFRACofidis – Solutions Crédits02:45:11  +  00:02:03=41,045 
153153 DENLars BakBELLotto Soudal02:45:18  +  00:02:10=41,016 
154154 BELThomas De GendtBELLotto Soudal02:45:18  +  00:02:10=41,016 
155155 GERRobert WagnerNLDTeam Lotto NL - Jumbo02:45:18  +  00:02:10=41,016 
156156 NZLGeorge BennettNLDTeam Lotto NL - Jumbo02:45:18  +  00:02:10=41,016 
157157 ERINatnael Teweldemedhin BerhaneZAFDimension Data02:45:23  +  00:02:15=40,996 
158158 SUIReto HollensteinCHEIAM Cycling02:45:25  +  00:02:17=40,987 
159159 NEDLaurens ten DamDEUTeam Giant Alpecin02:45:48  +  00:02:40=40,893 
160160 NORSondre Holst EngerCHEIAM Cycling02:45:52  +  00:02:44=40,876 
161161 GERSimon GeschkeDEUTeam Giant Alpecin02:45:53  +  00:02:45=40,872 
162162 NEDBert-Jan LindemanNLDTeam Lotto NL - Jumbo02:45:56  +  00:02:48=40,860 
163163 GERMarcus BurghardtUSABMC Racing Team02:46:04  +  00:02:56=40,827 
164164 NEDDylan GroenewegenNLDTeam Lotto NL - Jumbo02:46:39  +  00:03:31=40,684 
165165 AUSMathew HaymanAUSORICA BikeExchange02:46:42  +  00:03:34=40,672 
166166 FRAYohann GèneFRADirect Energie02:47:10  +  00:04:02=40,558 
167167 FRAThomas VoecklerFRADirect Energie02:47:17  +  00:04:09=40,530 
168168 FRABryan CoquardFRADirect Energie02:47:17  +  00:04:09=40,530 
169169 NEDTimo RoosenNLDTeam Lotto NL - Jumbo02:47:26  +  00:04:18=40,494 
170170 USALawson CraddockUSATeam Cannondale Drapac02:47:40  +  00:04:32=40,437 
171171 BELOliver NaesenCHEIAM Cycling02:47:42  +  00:04:34=40,429 
172172 FRARomain SicardFRADirect Energie02:48:09  +  00:05:01=40,321 
173173 FRAFabrice JeandesbozFRADirect Energie02:48:10  +  00:05:02=40,317 
174174 NORVegard BreenFRAFortuneo - Vital Concept02:50:25  +  00:07:17=39,785 

Withdrawls: 1
 
Rider
Team
Reason
185  GERTony MartinBELEtixx - Quick StepDid not finish
Todays birthdays.

1878  Jean Novo
1883  Jules Chabas
1890  Ange Aubry
1893  Roger Marye
1913  Paul Maye
1914  Lucien Vlaemynck
1915  Alphonse Antoine
1932  Rolf Graf
1953  Julio Rubiano
1959  Jos Haex
1959  Gerard Veldscholten
1963  Pablo Moreno
1964  Juan Castillo
1977  Iban Mayo
1994  Fernando Gaviria